Time;durP1;ratioP1;P1;durP2;ratioP2;P2;SDS_P1;SDS_P2;PMS_P1;PMS_P2;Temp;Humidity;BMP_temperature;BMP_pressure;BME280_temperature;BME280_humidity;BME280_pressure;Samples;Min_cycle;Max_cycle;Signal;HPM_P1;HPM_P2
2023/07/15 00:01:23;;;;;;;4.50;3.15;;;;;;;;;;5020348;28;20223;-79
2023/07/15 00:03:49;;;;;;;3.85;3.20;;;;;;;;;;5029612;28;20230;-79
2023/07/15 00:06:15;;;;;;;4.03;3.05;;;;;;;;;;5012725;28;20220;-78
2023/07/15 00:08:46;;;;;;;3.28;2.88;;;;;;;;;;5017597;28;20224;-79
2023/07/15 00:11:18;;;;;;;3.50;3.17;;;;;;;;;;5017937;28;20334;-78
2023/07/15 00:13:44;;;;;;;3.15;2.85;;;;;;;;;;5014941;28;20278;-78
2023/07/15 00:16:09;;;;;;;4.25;3.40;;;;;;;;;;5002096;28;20207;-78
2023/07/15 00:18:37;;;;;;;4.20;3.03;;;;;;;;;;4993064;28;20239;-78
2023/07/15 00:21:23;;;;;;;7.55;3.05;;;;;;;;;;4996928;28;20299;-79
2023/07/15 00:23:55;;;;;;;8.93;3.45;;;;;;;;;;5001576;28;20223;-77
2023/07/15 00:26:30;;;;;;;4.65;3.00;;;;;;;;;;5000329;28;20220;-78
2023/07/15 00:28:57;;;;;;;3.55;3.03;;;;;;;;;;5011117;28;20331;-78
2023/07/15 00:31:23;;;;;;;4.40;3.17;;;;;;;;;;5015575;28;20227;-79
2023/07/15 00:33:51;;;;;;;4.10;2.90;;;;;;;;;;5017361;28;20255;-79
2023/07/15 00:36:16;;;;;;;3.05;2.40;;;;;;;;;;5019131;28;20232;-80
2023/07/15 00:38:42;;;;;;;4.55;2.97;;;;;;;;;;5032287;28;20219;-80
2023/07/15 00:41:23;;;;;;;3.38;2.88;;;;;;;;;;5020174;28;20226;-80
2023/07/15 00:43:56;;;;;;;4.13;2.95;;;;;;;;;;5045397;28;20220;-79
2023/07/15 00:46:28;;;;;;;5.10;3.05;;;;;;;;;;5041818;28;20224;-80
2023/07/15 00:49:06;;;;;;;3.78;2.97;;;;;;;;;;5015037;28;20231;-78
2023/07/15 00:51:38;;;;;;;4.78;2.72;;;;;;;;;;5014285;28;20804;-78
2023/07/15 00:54:03;;;;;;;3.78;2.90;;;;;;;;;;5036447;28;20223;-79
2023/07/15 00:56:33;;;;;;;4.13;2.50;;;;;;;;;;5042433;28;20287;-78
2023/07/15 00:59:01;;;;;;;3.92;2.65;;;;;;;;;;5037027;28;20235;-78
2023/07/15 01:01:26;;;;;;;5.65;2.90;;;;;;;;;;4998514;28;20215;-77
2023/07/15 01:03:54;;;;;;;3.03;2.55;;;;;;;;;;5018293;28;20249;-76
2023/07/15 01:06:20;;;;;;;3.25;2.75;;;;;;;;;;5024554;28;20224;-77
2023/07/15 01:08:46;;;;;;;4.47;2.85;;;;;;;;;;5026338;28;20311;-76
2023/07/15 01:11:12;;;;;;;3.17;2.88;;;;;;;;;;5026436;28;20216;-77
2023/07/15 01:13:39;;;;;;;3.17;2.88;;;;;;;;;;4997997;28;20226;-77
2023/07/15 01:16:07;;;;;;;4.05;2.70;;;;;;;;;;5036351;28;20238;-79
2023/07/15 01:18:38;;;;;;;3.58;2.80;;;;;;;;;;5030940;28;20251;-79
2023/07/15 01:21:06;;;;;;;3.78;2.95;;;;;;;;;;5034111;28;20576;-79
2023/07/15 01:23:33;;;;;;;3.30;3.00;;;;;;;;;;5019983;28;20595;-78
2023/07/15 01:26:06;;;;;;;4.43;2.80;;;;;;;;;;5033155;28;20216;-79
2023/07/15 01:28:36;;;;;;;5.22;2.65;;;;;;;;;;5038977;28;20226;-79
2023/07/15 01:31:06;;;;;;;7.20;2.80;;;;;;;;;;5024223;28;20213;-78
2023/07/15 01:33:32;;;;;;;5.18;3.20;;;;;;;;;;5036886;28;20291;-79
2023/07/15 01:36:02;;;;;;;3.10;2.80;;;;;;;;;;5005860;28;20236;-78
2023/07/15 01:38:31;;;;;;;3.25;2.58;;;;;;;;;;5006986;28;20223;-79
2023/07/15 01:41:02;;;;;;;3.38;2.55;;;;;;;;;;5020015;28;20235;-79
2023/07/15 01:43:33;;;;;;;4.95;2.90;;;;;;;;;;5023726;28;20223;-79
2023/07/15 01:45:59;;;;;;;5.03;3.30;;;;;;;;;;5006592;28;20233;-79
2023/07/15 01:48:27;;;;;;;3.95;2.78;;;;;;;;;;5031553;28;20692;-79
2023/07/15 01:50:53;;;;;;;5.47;2.83;;;;;;;;;;5008523;28;20227;-78
2023/07/15 01:53:18;;;;;;;3.75;2.88;;;;;;;;;;5015933;28;20277;-78
2023/07/15 01:55:46;;;;;;;3.42;2.65;;;;;;;;;;5034436;28;20347;-79
2023/07/15 01:58:12;;;;;;;3.58;2.50;;;;;;;;;;5030676;28;20223;-79
2023/07/15 02:00:40;;;;;;;4.10;2.67;;;;;;;;;;5005263;28;20231;-77
2023/07/15 02:03:09;;;;;;;4.75;2.72;;;;;;;;;;5034777;28;20222;-77
2023/07/15 02:05:35;;;;;;;3.67;2.97;;;;;;;;;;5002690;28;20227;-78
2023/07/15 02:08:01;;;;;;;5.00;2.45;;;;;;;;;;5011735;28;20229;-80
2023/07/15 02:10:31;;;;;;;3.75;2.75;;;;;;;;;;5013163;28;20223;-78
2023/07/15 02:12:57;;;;;;;5.85;3.15;;;;;;;;;;5034921;28;20801;-80
2023/07/15 02:15:22;;;;;;;3.97;2.45;;;;;;;;;;5045543;28;20283;-80
2023/07/15 02:17:51;;;;;;;5.05;2.58;;;;;;;;;;5025700;28;20243;-76
2023/07/15 02:20:19;;;;;;;3.58;2.97;;;;;;;;;;5027387;28;20235;-79
2023/07/15 02:22:44;;;;;;;6.35;2.60;;;;;;;;;;5019548;28;20239;-79
2023/07/15 02:25:10;;;;;;;3.50;2.78;;;;;;;;;;5021233;28;20243;-79
2023/07/15 02:27:38;;;;;;;4.82;2.65;;;;;;;;;;5018260;28;20239;-79
2023/07/15 02:30:09;;;;;;;3.58;2.63;;;;;;;;;;5031086;28;20256;-78
2023/07/15 02:32:39;;;;;;;5.13;2.67;;;;;;;;;;4995460;28;20830;-78
2023/07/15 02:35:08;;;;;;;3.72;2.45;;;;;;;;;;5035575;28;20230;-78
2023/07/15 02:37:37;;;;;;;4.55;2.50;;;;;;;;;;5008506;28;20287;-79
2023/07/15 02:40:06;;;;;;;5.00;2.38;;;;;;;;;;5014776;28;20231;-78
2023/07/15 02:42:33;;;;;;;9.38;3.13;;;;;;;;;;5036707;28;20217;-79
2023/07/15 02:45:05;;;;;;;3.35;2.50;;;;;;;;;;4998133;28;20255;-78
2023/07/15 02:47:31;;;;;;;4.03;2.80;;;;;;;;;;5019131;28;20232;-77
2023/07/15 02:50:03;;;;;;;3.95;2.95;;;;;;;;;;5011367;28;20208;-78
2023/07/15 02:52:30;;;;;;;3.22;2.60;;;;;;;;;;5007521;28;20265;-77
2023/07/15 02:55:00;;;;;;;5.55;3.03;;;;;;;;;;4978611;28;20786;-78
2023/07/15 02:57:26;;;;;;;3.70;2.70;;;;;;;;;;5014379;28;20236;-77
2023/07/15 02:59:52;;;;;;;3.17;2.88;;;;;;;;;;5019220;28;20307;-79
2023/07/15 03:02:18;;;;;;;2.92;2.55;;;;;;;;;;5014159;28;20254;-78
2023/07/15 03:04:44;;;;;;;2.63;2.40;;;;;;;;;;5016820;28;20223;-78
2023/07/15 03:07:12;;;;;;;3.35;2.50;;;;;;;;;;4992654;28;20223;-79
2023/07/15 03:09:40;;;;;;;3.78;2.72;;;;;;;;;;5019520;28;20230;-80
2023/07/15 03:12:15;;;;;;;5.53;2.65;;;;;;;;;;5027696;28;20219;-79
2023/07/15 03:14:42;;;;;;;7.07;2.47;;;;;;;;;;5017273;28;20227;-78
2023/07/15 03:17:10;;;;;;;5.53;2.60;;;;;;;;;;5008033;28;20310;-78
2023/07/15 03:19:37;;;;;;;4.45;2.80;;;;;;;;;;5016913;28;20227;-79
2023/07/15 03:22:03;;;;;;;3.25;2.60;;;;;;;;;;5015609;28;20253;-79
2023/07/15 03:24:30;;;;;;;5.85;2.65;;;;;;;;;;5022700;28;20223;-76
2023/07/15 03:26:58;;;;;;;7.88;3.00;;;;;;;;;;5034098;28;20243;-76
2023/07/15 03:29:24;;;;;;;3.55;2.80;;;;;;;;;;5026305;28;20234;-76
2023/07/15 03:31:50;;;;;;;4.18;2.55;;;;;;;;;;5021454;28;20224;-76
2023/07/15 03:34:19;;;;;;;2.80;2.47;;;;;;;;;;5033735;28;20226;-79
2023/07/15 03:36:45;;;;;;;6.80;2.50;;;;;;;;;;4998030;28;20234;-79
2023/07/15 03:39:10;;;;;;;3.25;2.70;;;;;;;;;;4984308;28;20885;-79
2023/07/15 03:41:36;;;;;;;6.43;2.53;;;;;;;;;;5010735;28;20220;-76
2023/07/15 03:44:05;;;;;;;2.78;2.30;;;;;;;;;;5014857;28;20207;-77
2023/07/15 03:46:31;;;;;;;4.60;2.50;;;;;;;;;;5009881;28;20223;-77
2023/07/15 03:48:56;;;;;;;4.13;2.70;;;;;;;;;;5009601;28;20216;-76
2023/07/15 03:51:22;;;;;;;4.75;2.35;;;;;;;;;;5008881;28;20227;-77
2023/07/15 03:53:48;;;;;;;5.28;2.60;;;;;;;;;;5034834;28;20806;-79
2023/07/15 03:56:16;;;;;;;4.45;2.53;;;;;;;;;;5004995;28;20223;-78
2023/07/15 03:58:44;;;;;;;5.55;2.47;;;;;;;;;;5001341;28;20219;-79
2023/07/15 04:04:58;;;;;;;5.97;2.80;;;;;;;;;;5042999;28;20226;-78
2023/07/15 04:07:23;;;;;;;5.05;2.47;;;;;;;;;;5011706;28;20231;-77
2023/07/15 04:09:49;;;;;;;3.33;2.40;;;;;;;;;;5036556;28;20227;-77
2023/07/15 04:12:17;;;;;;;7.38;2.80;;;;;;;;;;5056370;28;20224;-76
2023/07/15 04:14:42;;;;;;;3.05;2.53;;;;;;;;;;5023781;28;20230;-75
2023/07/15 04:17:11;;;;;;;3.42;2.60;;;;;;;;;;5014724;28;20223;-77
2023/07/15 04:19:38;;;;;;;4.38;2.92;;;;;;;;;;5020186;28;20294;-76
2023/07/15 04:22:04;;;;;;;7.00;2.67;;;;;;;;;;5039466;28;20211;-77
2023/07/15 04:24:31;;;;;;;5.40;2.63;;;;;;;;;;5020567;28;20286;-75
2023/07/15 04:27:00;;;;;;;3.92;2.85;;;;;;;;;;5010101;28;20255;-76
2023/07/15 04:29:25;;;;;;;2.47;2.28;;;;;;;;;;5010508;28;21031;-77
2023/07/15 04:31:51;;;;;;;4.15;2.20;;;;;;;;;;5020322;28;20274;-76
2023/07/15 04:34:16;;;;;;;3.05;2.30;;;;;;;;;;5018164;28;20238;-77
2023/07/15 04:36:44;;;;;;;5.65;2.42;;;;;;;;;;5029722;28;20600;-77
2023/07/15 04:39:15;;;;;;;6.15;2.45;;;;;;;;;;5030086;28;20230;-79
2023/07/15 04:41:40;;;;;;;2.30;2.10;;;;;;;;;;4997803;28;20231;-78
2023/07/15 04:44:06;;;;;;;2.88;2.33;;;;;;;;;;5018495;28;20258;-77
2023/07/15 04:46:32;;;;;;;3.83;2.38;;;;;;;;;;5036892;28;20565;-77
2023/07/15 04:48:57;;;;;;;2.78;2.30;;;;;;;;;;5015848;28;20234;-78
2023/07/15 04:51:23;;;;;;;6.57;2.50;;;;;;;;;;5020320;28;20235;-78
2023/07/15 04:53:49;;;;;;;4.82;2.28;;;;;;;;;;5051050;28;20743;-80
2023/07/15 04:56:14;;;;;;;5.63;2.50;;;;;;;;;;5023013;28;20651;-80
2023/07/15 04:58:42;;;;;;;2.67;2.22;;;;;;;;;;5038656;28;20271;-81
2023/07/15 05:01:08;;;;;;;5.68;2.45;;;;;;;;;;5007000;28;20216;-79
2023/07/15 05:03:33;;;;;;;2.78;2.50;;;;;;;;;;5016060;28;20569;-80
2023/07/15 05:05:59;;;;;;;3.10;2.45;;;;;;;;;;5021814;28;20227;-78
2023/07/15 05:08:26;;;;;;;4.60;2.58;;;;;;;;;;4999042;28;20231;-80
2023/07/15 05:10:57;;;;;;;2.80;2.30;;;;;;;;;;5034231;28;20227;-79
2023/07/15 05:13:23;;;;;;;4.53;2.17;;;;;;;;;;5036888;28;20248;-79
2023/07/15 05:15:49;;;;;;;3.08;2.63;;;;;;;;;;5024672;28;20219;-76
2023/07/15 05:18:15;;;;;;;4.40;2.40;;;;;;;;;;5033395;28;20231;-79
2023/07/15 05:20:41;;;;;;;3.83;2.35;;;;;;;;;;5025028;28;20219;-80
2023/07/15 05:23:06;;;;;;;4.53;2.33;;;;;;;;;;4994934;28;20212;-79
2023/07/15 05:25:32;;;;;;;4.55;2.53;;;;;;;;;;5026581;28;20254;-79
2023/07/15 05:27:58;;;;;;;5.22;2.30;;;;;;;;;;5021692;28;20226;-80
2023/07/15 05:30:25;;;;;;;4.05;2.40;;;;;;;;;;5050629;28;20219;-80
2023/07/15 05:32:51;;;;;;;4.75;2.35;;;;;;;;;;5026144;28;20288;-79
2023/07/15 05:35:17;;;;;;;2.17;1.80;;;;;;;;;;5032867;28;20298;-79
2023/07/15 05:37:47;;;;;;;4.43;2.47;;;;;;;;;;5041168;28;20695;-79
2023/07/15 05:40:13;;;;;;;3.03;2.35;;;;;;;;;;5015609;28;20263;-78
2023/07/15 05:42:44;;;;;;;3.30;2.15;;;;;;;;;;5047318;28;20227;-78
2023/07/15 05:45:15;;;;;;;2.88;2.17;;;;;;;;;;5044853;28;20230;-79
2023/07/15 05:47:40;;;;;;;2.85;2.10;;;;;;;;;;5035366;28;20247;-79
2023/07/15 05:50:07;;;;;;;2.00;1.77;;;;;;;;;;5006077;28;20715;-80
2023/07/15 05:52:35;;;;;;;4.88;2.10;;;;;;;;;;5031210;28;20286;-79
2023/07/15 05:55:01;;;;;;;5.07;2.45;;;;;;;;;;5027620;28;20738;-78
2023/07/15 05:57:26;;;;;;;2.65;2.33;;;;;;;;;;5053650;28;20342;-79
2023/07/15 05:59:52;;;;;;;4.10;2.20;;;;;;;;;;5033489;28;20263;-80
2023/07/15 06:02:18;;;;;;;2.90;2.60;;;;;;;;;;5048104;28;20231;-80
2023/07/15 06:04:43;;;;;;;3.25;2.20;;;;;;;;;;5025878;28;20598;-82
2023/07/15 06:07:09;;;;;;;2.60;2.40;;;;;;;;;;5037805;28;20216;-81
2023/07/15 06:09:34;;;;;;;3.75;2.45;;;;;;;;;;5021643;28;20246;-79
2023/07/15 06:12:00;;;;;;;4.45;2.20;;;;;;;;;;5018774;28;20337;-79
2023/07/15 06:14:25;;;;;;;2.10;1.90;;;;;;;;;;5032380;28;20219;-80
2023/07/15 06:16:51;;;;;;;3.65;1.80;;;;;;;;;;5014393;28;20224;-78
2023/07/15 06:19:18;;;;;;;2.22;2.03;;;;;;;;;;5035039;28;20281;-80
2023/07/15 06:21:44;;;;;;;2.55;1.90;;;;;;;;;;5013014;28;20684;-79
2023/07/15 06:24:09;;;;;;;2.83;2.10;;;;;;;;;;5015683;28;20227;-79
2023/07/15 06:26:35;;;;;;;2.42;2.22;;;;;;;;;;5017477;28;20216;-80
2023/07/15 06:29:01;;;;;;;7.32;2.63;;;;;;;;;;4988103;28;20633;-81
2023/07/15 06:31:29;;;;;;;6.05;2.20;;;;;;;;;;5024764;28;20219;-79
2023/07/15 06:33:55;;;;;;;7.88;2.03;;;;;;;;;;5015669;28;20234;-80
2023/07/15 06:36:20;;;;;;;6.22;1.90;;;;;;;;;;5035812;28;20228;-79
2023/07/15 06:38:46;;;;;;;3.08;2.17;;;;;;;;;;5026007;28;20231;-79
2023/07/15 06:41:11;;;;;;;3.92;2.22;;;;;;;;;;5053094;28;20207;-81
2023/07/15 06:43:37;;;;;;;5.90;1.85;;;;;;;;;;5014788;28;20976;-79
2023/07/15 06:46:06;;;;;;;3.42;2.13;;;;;;;;;;5016773;28;20721;-78
2023/07/15 06:48:31;;;;;;;4.35;2.10;;;;;;;;;;5010171;28;20254;-78
2023/07/15 06:51:01;;;;;;;3.70;2.15;;;;;;;;;;4990929;28;20215;-77
2023/07/15 06:53:27;;;;;;;3.10;2.13;;;;;;;;;;5016636;28;20987;-78
2023/07/15 06:55:53;;;;;;;6.53;2.20;;;;;;;;;;5026216;28;20234;-79
2023/07/15 06:58:18;;;;;;;2.42;2.20;;;;;;;;;;5008089;28;20257;-79
2023/07/15 07:00:44;;;;;;;3.67;1.98;;;;;;;;;;5040223;28;20900;-79
2023/07/15 07:03:09;;;;;;;2.60;2.10;;;;;;;;;;5008469;28;20254;-79
2023/07/15 07:05:37;;;;;;;2.85;2.08;;;;;;;;;;5023931;28;20254;-80
2023/07/15 07:08:03;;;;;;;2.55;2.10;;;;;;;;;;5009188;28;20251;-80
2023/07/15 07:10:28;;;;;;;4.10;2.17;;;;;;;;;;5025942;28;20222;-82
2023/07/15 07:12:54;;;;;;;3.38;2.00;;;;;;;;;;5022333;28;20673;-80
2023/07/15 07:15:19;;;;;;;1.95;1.70;;;;;;;;;;5007138;28;20703;-81
2023/07/15 07:17:45;;;;;;;3.20;2.05;;;;;;;;;;5046464;28;20227;-80
2023/07/15 07:20:13;;;;;;;2.30;1.83;;;;;;;;;;5063906;28;20257;-78
2023/07/15 07:22:40;;;;;;;2.30;1.83;;;;;;;;;;5025692;28;20230;-79
2023/07/15 07:25:06;;;;;;;2.92;1.90;;;;;;;;;;5007668;28;20208;-80
2023/07/15 07:27:32;;;;;;;4.22;1.95;;;;;;;;;;5007465;28;20223;-79
2023/07/15 07:29:59;;;;;;;2.05;1.75;;;;;;;;;;5002139;28;20231;-78
2023/07/15 07:32:25;;;;;;;2.17;1.80;;;;;;;;;;5017068;28;20242;-80
2023/07/15 07:34:53;;;;;;;2.92;1.90;;;;;;;;;;5024378;28;20819;-80
2023/07/15 07:37:18;;;;;;;2.95;1.67;;;;;;;;;;5039001;28;20227;-82
2023/07/15 07:39:44;;;;;;;5.18;1.83;;;;;;;;;;5035677;28;20715;-80
2023/07/15 07:42:09;;;;;;;4.05;1.70;;;;;;;;;;5022679;28;20231;-81
2023/07/15 07:44:35;;;;;;;5.20;1.95;;;;;;;;;;5031872;28;20211;-79
2023/07/15 07:47:01;;;;;;;3.65;2.00;;;;;;;;;;5011007;28;20591;-80
2023/07/15 07:49:26;;;;;;;2.67;2.00;;;;;;;;;;5039404;28;20296;-81
2023/07/15 07:51:52;;;;;;;3.28;2.20;;;;;;;;;;5057205;28;20215;-81
2023/07/15 07:54:19;;;;;;;1.90;1.75;;;;;;;;;;5040410;28;20223;-81
2023/07/15 07:56:47;;;;;;;3.00;1.95;;;;;;;;;;5004826;28;20220;-80
2023/07/15 07:59:15;;;;;;;2.47;2.00;;;;;;;;;;5035193;28;20218;-81
2023/07/15 08:01:40;;;;;;;3.95;1.90;;;;;;;;;;5020574;28;20252;-81
2023/07/15 08:04:06;;;;;;;2.42;1.60;;;;;;;;;;5016390;28;20739;-79
2023/07/15 08:06:34;;;;;;;1.60;1.50;;;;;;;;;;5028125;28;20222;-80
2023/07/15 08:08:59;;;;;;;4.07;2.13;;;;;;;;;;5036543;28;20223;-79
2023/07/15 08:11:25;;;;;;;3.58;1.92;;;;;;;;;;5017253;28;20211;-80
2023/07/15 08:13:53;;;;;;;2.85;1.70;;;;;;;;;;5021303;28;20227;-79
2023/07/15 08:16:30;;;;;;;5.85;2.00;;;;;;;;;;5037792;28;20220;-79
2023/07/15 08:18:56;;;;;;;2.50;1.92;;;;;;;;;;5039040;28;20259;-81
2023/07/15 08:21:21;;;;;;;2.70;1.73;;;;;;;;;;5038611;28;20219;-79
2023/07/15 08:23:47;;;;;;;6.03;1.77;;;;;;;;;;5033876;28;20229;-81
2023/07/15 08:26:13;;;;;;;2.03;1.80;;;;;;;;;;4992601;28;20222;-80
2023/07/15 08:28:40;;;;;;;2.55;1.90;;;;;;;;;;5021249;28;20282;-81
2023/07/15 08:31:08;;;;;;;2.22;1.90;;;;;;;;;;5023986;28;20682;-79
2023/07/15 08:33:34;;;;;;;2.97;1.60;;;;;;;;;;5014554;28;20487;-80
2023/07/15 08:35:59;;;;;;;5.38;1.83;;;;;;;;;;5050676;28;20265;-79
2023/07/15 08:38:25;;;;;;;2.88;1.73;;;;;;;;;;5016131;28;20223;-78
2023/07/15 08:40:51;;;;;;;2.25;1.90;;;;;;;;;;5016852;28;20208;-80
2023/07/15 08:43:18;;;;;;;2.95;1.67;;;;;;;;;;5028060;28;20220;-78
2023/07/15 08:45:44;;;;;;;3.85;1.90;;;;;;;;;;5026983;28;20637;-81
2023/07/15 08:48:09;;;;;;;4.13;1.80;;;;;;;;;;5016151;28;20220;-80
2023/07/15 08:50:37;;;;;;;3.80;1.90;;;;;;;;;;5016456;28;20696;-79
2023/07/15 08:53:03;;;;;;;2.72;1.80;;;;;;;;;;4994807;28;20220;-79
2023/07/15 08:55:29;;;;;;;2.38;1.70;;;;;;;;;;5002109;28;20216;-79
2023/07/15 08:57:56;;;;;;;2.80;1.90;;;;;;;;;;5031977;28;20251;-79
2023/07/15 09:00:21;;;;;;;2.58;1.80;;;;;;;;;;5040579;28;20207;-80
2023/07/15 09:02:47;;;;;;;2.33;1.90;;;;;;;;;;5031904;28;20215;-79
2023/07/15 09:05:12;;;;;;;2.17;1.63;;;;;;;;;;5047031;28;20215;-79
2023/07/15 09:07:46;;;;;;;2.20;1.67;;;;;;;;;;5010666;28;20231;-80
2023/07/15 09:10:14;;;;;;;2.03;1.77;;;;;;;;;;5051909;28;20211;-80
2023/07/15 09:12:47;;;;;;;5.40;1.90;;;;;;;;;;5035981;28;20216;-81
2023/07/15 09:15:13;;;;;;;2.78;1.70;;;;;;;;;;5006261;28;20216;-81
2023/07/15 09:17:40;;;;;;;3.30;1.80;;;;;;;;;;5025197;28;20226;-78
2023/07/15 09:20:18;;;;;;;2.22;1.70;;;;;;;;;;4994790;28;20216;-80
2023/07/15 09:22:49;;;;;;;1.60;1.50;;;;;;;;;;5045837;28;20216;-79
2023/07/15 09:25:19;;;;;;;5.80;1.88;;;;;;;;;;5035448;28;20230;-81
2023/07/15 09:27:44;;;;;;;1.70;1.60;;;;;;;;;;5039709;28;20226;-80
2023/07/15 09:30:10;;;;;;;2.42;1.85;;;;;;;;;;5038096;28;20215;-79
2023/07/15 09:32:36;;;;;;;5.38;1.98;;;;;;;;;;5039566;28;20219;-82
2023/07/15 09:35:03;;;;;;;4.15;1.75;;;;;;;;;;5029449;28;20267;-80
2023/07/15 09:37:32;;;;;;;5.43;1.80;;;;;;;;;;5002654;28;20730;-81
2023/07/15 09:40:15;;;;;;;1.63;1.50;;;;;;;;;;5031119;28;20212;-80
2023/07/15 09:42:53;;;;;;;4.20;1.77;;;;;;;;;;4999077;28;20220;-83
2023/07/15 09:45:35;;;;;;;3.83;1.80;;;;;;;;;;5030776;28;20359;-80
2023/07/15 09:48:06;;;;;;;1.50;1.38;;;;;;;;;;5033442;28;20283;-78
2023/07/15 09:50:33;;;;;;;4.60;1.55;;;;;;;;;;4997839;28;20228;-81
2023/07/15 09:53:00;;;;;;;3.20;1.60;;;;;;;;;;5029496;28;20300;-78
2023/07/15 09:55:27;;;;;;;1.90;1.30;;;;;;;;;;5020887;28;20253;-81
2023/07/15 09:58:18;;;;;;;2.97;1.42;;;;;;;;;;5055210;28;20227;-81
2023/07/15 10:00:50;;;;;;;1.20;1.10;;;;;;;;;;5009361;28;20220;-81
2023/07/15 10:03:41;;;;;;;1.35;1.25;;;;;;;;;;4998989;28;20636;-79
2023/07/15 10:06:06;;;;;;;1.70;1.27;;;;;;;;;;4998155;28;20252;-79
2023/07/15 10:08:32;;;;;;;1.80;1.38;;;;;;;;;;5001705;28;20225;-81
2023/07/15 10:10:57;;;;;;;1.73;1.50;;;;;;;;;;4994156;28;20233;-83
2023/07/15 10:13:26;;;;;;;1.73;1.48;;;;;;;;;;5014141;28;20219;-81
2023/07/15 10:15:51;;;;;;;1.48;1.38;;;;;;;;;;5005989;28;20239;-80
2023/07/15 10:18:17;;;;;;;1.48;1.23;;;;;;;;;;5018151;28;20747;-77
2023/07/15 10:21:02;;;;;;;1.40;1.20;;;;;;;;;;5033185;28;20227;-76
2023/07/15 10:23:34;;;;;;;1.67;1.15;;;;;;;;;;4997595;28;20616;-79
2023/07/15 10:26:04;;;;;;;1.42;1.33;;;;;;;;;;5046366;28;20224;-79
2023/07/15 10:28:34;;;;;;;2.15;1.50;;;;;;;;;;5033602;28;20220;-82
2023/07/15 10:31:26;;;;;;;1.60;1.40;;;;;;;;;;4999768;28;20223;-80
2023/07/15 10:33:57;;;;;;;2.30;1.50;;;;;;;;;;5021650;28;20232;-82
2023/07/15 10:36:35;;;;;;;2.80;1.63;;;;;;;;;;5034911;28;20223;-82
2023/07/15 10:39:19;;;;;;;1.80;1.42;;;;;;;;;;5035269;28;20238;-82
2023/07/15 10:41:48;;;;;;;1.90;1.35;;;;;;;;;;5034701;28;20215;-78
2023/07/15 10:44:39;;;;;;;1.50;1.40;;;;;;;;;;5028589;28;20700;-78
2023/07/15 10:47:05;;;;;;;1.67;1.20;;;;;;;;;;5012882;28;20700;-80
2023/07/15 10:49:33;;;;;;;3.33;1.38;;;;;;;;;;5031228;28;20285;-81
2023/07/15 10:51:59;;;;;;;2.50;1.20;;;;;;;;;;5031084;28;20308;-79
2023/07/15 10:54:28;;;;;;;2.35;1.00;;;;;;;;;;5007803;28;20780;-78
2023/07/15 10:56:56;;;;;;;3.97;1.50;;;;;;;;;;5028667;28;20234;-79
2023/07/15 10:59:32;;;;;;;1.83;1.38;;;;;;;;;;5027474;28;20266;-79
2023/07/15 11:01:59;;;;;;;2.05;1.33;;;;;;;;;;5015241;28;20216;-81
2023/07/15 11:04:26;;;;;;;3.65;1.63;;;;;;;;;;5026072;28;20303;-78
2023/07/15 11:07:01;;;;;;;2.17;1.60;;;;;;;;;;5015329;28;20223;-77
2023/07/15 11:09:26;;;;;;;4.50;1.60;;;;;;;;;;5036355;28;20234;-80
2023/07/15 11:11:54;;;;;;;1.48;1.38;;;;;;;;;;5012508;28;20216;-79
2023/07/15 11:14:21;;;;;;;3.38;1.63;;;;;;;;;;5024979;28;20220;-78
2023/07/15 11:16:50;;;;;;;2.95;1.42;;;;;;;;;;5047686;28;20229;-80
2023/07/15 11:19:21;;;;;;;3.67;1.75;;;;;;;;;;5048738;28;20227;-77
2023/07/15 11:21:47;;;;;;;1.67;1.40;;;;;;;;;;5029063;28;20701;-81
2023/07/15 11:24:15;;;;;;;3.40;1.50;;;;;;;;;;5016798;28;20281;-77
2023/07/15 11:26:43;;;;;;;3.53;1.67;;;;;;;;;;5004310;28;20223;-79
2023/07/15 11:29:20;;;;;;;2.22;1.60;;;;;;;;;;5021146;28;20269;-78
2023/07/15 11:31:56;;;;;;;4.03;1.80;;;;;;;;;;5044804;28;20247;-78
2023/07/15 11:34:24;;;;;;;2.28;1.60;;;;;;;;;;5024902;28;20301;-80
2023/07/15 11:36:51;;;;;;;1.63;1.52;;;;;;;;;;5001847;28;20275;-78
2023/07/15 11:39:16;;;;;;;2.55;1.67;;;;;;;;;;5003614;28;20668;-80
2023/07/15 11:41:43;;;;;;;1.75;1.60;;;;;;;;;;5009865;28;20218;-77
2023/07/15 11:44:11;;;;;;;3.58;1.50;;;;;;;;;;5033349;28;20264;-77
2023/07/15 11:46:37;;;;;;;3.42;1.80;;;;;;;;;;5044221;28;20212;-77
2023/07/15 11:49:04;;;;;;;1.48;1.40;;;;;;;;;;5028438;28;20227;-79
2023/07/15 11:51:33;;;;;;;1.60;1.50;;;;;;;;;;5035714;28;20219;-80
2023/07/15 11:53:58;;;;;;;1.58;1.40;;;;;;;;;;5026211;28;20227;-78
2023/07/15 11:56:40;;;;;;;1.85;1.55;;;;;;;;;;5019513;28;20222;-77
2023/07/15 11:59:10;;;;;;;1.60;1.50;;;;;;;;;;5019508;28;20929;-78
2023/07/15 12:01:40;;;;;;;2.17;1.40;;;;;;;;;;5017560;28;20227;-79
2023/07/15 12:04:13;;;;;;;2.67;1.60;;;;;;;;;;4989689;28;20208;-79
2023/07/15 12:06:45;;;;;;;2.25;1.73;;;;;;;;;;5023346;28;20281;-80
2023/07/15 12:09:11;;;;;;;2.78;1.52;;;;;;;;;;5015243;28;20301;-77
2023/07/15 12:11:37;;;;;;;1.70;1.60;;;;;;;;;;5032454;28;20239;-78
2023/07/15 12:14:04;;;;;;;3.03;1.70;;;;;;;;;;5013192;28;20523;-79
2023/07/15 12:16:31;;;;;;;3.65;1.73;;;;;;;;;;5018082;28;20736;-79
2023/07/15 12:18:58;;;;;;;3.53;1.70;;;;;;;;;;5032436;28;20247;-77
2023/07/15 12:21:26;;;;;;;4.45;1.60;;;;;;;;;;5032199;28;20223;-78
2023/07/15 12:23:52;;;;;;;1.42;1.30;;;;;;;;;;5025408;28;20227;-80
2023/07/15 12:26:18;;;;;;;2.58;1.40;;;;;;;;;;5030852;28;20269;-79
2023/07/15 12:28:44;;;;;;;3.13;1.10;;;;;;;;;;5000534;28;20227;-81
2023/07/15 12:31:13;;;;;;;1.55;1.27;;;;;;;;;;5001632;28;20211;-78
2023/07/15 12:33:41;;;;;;;1.58;1.20;;;;;;;;;;5050600;28;20233;-78
2023/07/15 12:36:08;;;;;;;1.75;1.10;;;;;;;;;;5028956;28;20212;-81
2023/07/15 12:38:34;;;;;;;1.35;1.00;;;;;;;;;;5050467;28;20227;-81
2023/07/15 12:41:03;;;;;;;1.10;1.00;;;;;;;;;;5037721;28;20219;-78
2023/07/15 12:43:28;;;;;;;2.75;1.15;;;;;;;;;;5054205;28;20225;-78
2023/07/15 12:45:54;;;;;;;1.60;0.90;;;;;;;;;;5042538;28;20827;-77
2023/07/15 12:48:20;;;;;;;1.85;1.15;;;;;;;;;;5040161;28;20250;-77
2023/07/15 12:50:46;;;;;;;1.80;1.20;;;;;;;;;;5030976;28;20222;-78
2023/07/15 12:53:15;;;;;;;1.38;1.20;;;;;;;;;;5021716;28;20224;-79
2023/07/15 12:55:41;;;;;;;2.42;1.20;;;;;;;;;;5054928;28;20220;-79
2023/07/15 12:58:06;;;;;;;1.40;1.20;;;;;;;;;;5019980;28;20239;-77
2023/07/15 13:00:32;;;;;;;1.25;1.15;;;;;;;;;;5036113;28;20684;-76
2023/07/15 13:02:59;;;;;;;1.13;1.10;;;;;;;;;;5030891;28;20215;-78
2023/07/15 13:05:25;;;;;;;4.00;1.45;;;;;;;;;;5021315;28;20223;-79
2023/07/15 13:07:50;;;;;;;2.10;1.80;;;;;;;;;;5035958;28;20220;-79
2023/07/15 13:10:16;;;;;;;3.88;1.83;;;;;;;;;;5023333;28;20273;-79
2023/07/15 13:12:41;;;;;;;2.95;1.88;;;;;;;;;;5019305;28;20227;-79
2023/07/15 13:15:08;;;;;;;4.85;1.58;;;;;;;;;;5036006;28;20230;-78
2023/07/15 13:17:39;;;;;;;2.13;1.75;;;;;;;;;;5021842;28;20220;-77
2023/07/15 13:20:09;;;;;;;2.95;2.00;;;;;;;;;;5037733;28;20219;-80
2023/07/15 13:22:36;;;;;;;3.67;1.70;;;;;;;;;;5000337;28;20223;-79
2023/07/15 13:25:03;;;;;;;1.83;1.60;;;;;;;;;;5036313;28;20243;-77
2023/07/15 13:27:28;;;;;;;2.25;1.65;;;;;;;;;;5041091;28;20230;-78
2023/07/15 13:29:54;;;;;;;1.85;1.23;;;;;;;;;;5035934;28;20705;-76
2023/07/15 13:32:19;;;;;;;3.65;1.65;;;;;;;;;;5014520;28;20219;-77
2023/07/15 13:34:50;;;;;;;1.45;1.35;;;;;;;;;;5030930;28;20215;-77
2023/07/15 13:37:15;;;;;;;1.65;1.55;;;;;;;;;;5040852;28;20266;-78
2023/07/15 13:39:42;;;;;;;1.45;1.35;;;;;;;;;;5041415;28;20220;-76
2023/07/15 13:42:12;;;;;;;1.58;1.45;;;;;;;;;;5026797;28;20215;-77
2023/07/15 13:44:37;;;;;;;2.15;1.58;;;;;;;;;;5022368;28;20755;-78
2023/07/15 13:47:03;;;;;;;1.40;1.30;;;;;;;;;;4996030;28;20216;-79
2023/07/15 13:49:29;;;;;;;1.65;1.55;;;;;;;;;;5033318;28;20236;-81
2023/07/15 13:51:55;;;;;;;1.60;1.33;;;;;;;;;;5014457;28;20211;-78
2023/07/15 13:54:20;;;;;;;1.65;1.50;;;;;;;;;;5027061;28;20223;-80
2023/07/15 13:56:46;;;;;;;1.50;1.40;;;;;;;;;;5043490;28;20839;-79
2023/07/15 13:59:12;;;;;;;1.80;1.67;;;;;;;;;;4998723;28;20219;-78
2023/07/15 14:01:40;;;;;;;1.67;1.55;;;;;;;;;;5037668;28;20214;-77
2023/07/15 14:04:05;;;;;;;3.25;1.63;;;;;;;;;;5031265;28;20230;-77
2023/07/15 14:06:31;;;;;;;1.92;1.27;;;;;;;;;;4996234;28;20224;-79
2023/07/15 14:08:57;;;;;;;3.13;1.40;;;;;;;;;;5048003;28;20231;-78
2023/07/15 14:11:27;;;;;;;1.30;1.05;;;;;;;;;;5032939;28;20265;-79
2023/07/15 14:13:52;;;;;;;2.05;1.20;;;;;;;;;;5029496;28;20224;-80
2023/07/15 14:16:18;;;;;;;0.98;0.98;;;;;;;;;;5012212;28;20215;-78
2023/07/15 14:18:43;;;;;;;0.85;0.85;;;;;;;;;;5007122;28;20319;-78
2023/07/15 14:21:09;;;;;;;1.50;1.10;;;;;;;;;;5020629;28;20234;-80
2023/07/15 14:23:37;;;;;;;1.45;0.98;;;;;;;;;;5037325;28;20228;-79
2023/07/15 14:26:05;;;;;;;1.15;1.00;;;;;;;;;;5024851;28;20306;-77
2023/07/15 14:28:30;;;;;;;0.80;0.80;;;;;;;;;;5044898;28;20357;-79
2023/07/15 14:30:56;;;;;;;2.65;1.08;;;;;;;;;;5036415;28;20227;-79
2023/07/15 14:33:25;;;;;;;1.10;1.00;;;;;;;;;;5002551;28;20230;-78
2023/07/15 14:35:55;;;;;;;0.80;0.80;;;;;;;;;;5027059;28;20220;-77
2023/07/15 14:38:25;;;;;;;0.98;0.82;;;;;;;;;;5035806;28;20223;-80
2023/07/15 14:40:51;;;;;;;1.85;0.90;;;;;;;;;;5016254;28;20306;-80
2023/07/15 14:43:17;;;;;;;0.98;0.90;;;;;;;;;;5030990;28;20277;-78
2023/07/15 14:45:45;;;;;;;1.02;0.85;;;;;;;;;;5031619;28;20698;-78
2023/07/15 14:48:11;;;;;;;1.08;0.93;;;;;;;;;;5036162;28;20244;-78
2023/07/15 14:50:39;;;;;;;1.15;0.90;;;;;;;;;;5026157;28;20223;-78